createdAt,value
2018-12-04T00:00:00.828Z,800.22
2018-12-04T00:00:05.256Z,800.25
2018-12-04T00:00:09.554Z,800.23
2018-12-04T00:00:13.859Z,800.22
2018-12-04T00:00:18.155Z,800.25
2018-12-04T00:00:22.263Z,800.22
2018-12-04T00:00:26.563Z,800.17
2018-12-04T00:00:30.852Z,800.21
2018-12-04T00:00:35.144Z,800.26
2018-12-04T00:00:39.440Z,800.25
2018-12-04T00:00:43.740Z,800.27
2018-12-04T00:00:48.029Z,800.27
2018-12-04T00:00:52.325Z,800.24
2018-12-04T00:00:56.621Z,800.28
2018-12-04T00:01:00.919Z,800.27
2018-12-04T00:01:06.154Z,800.26
2018-12-04T00:01:10.451Z,800.29
2018-12-04T00:01:14.798Z,800.31
2018-12-04T00:01:19.103Z,800.27
2018-12-04T00:01:23.396Z,800.29
2018-12-04T00:01:27.698Z,800.3
2018-12-04T00:01:32.017Z,800.33
2018-12-04T00:01:36.316Z,800.29
2018-12-04T00:01:40.621Z,800.32
2018-12-04T00:01:44.921Z,800.3
2018-12-04T00:01:49.225Z,800.32
2018-12-04T00:02:25.570Z,800.32
2018-12-04T00:02:29.869Z,800.35
2018-12-04T00:02:34.172Z,800.28
2018-12-04T00:02:38.465Z,800.25
2018-12-04T00:02:42.768Z,800.31
2018-12-04T00:02:47.073Z,800.32
2018-12-04T00:02:51.424Z,800.33
2018-12-04T00:02:55.723Z,800.26
2018-12-04T00:03:00.015Z,800.32
2018-12-04T00:03:04.306Z,800.31
2018-12-04T00:03:08.420Z,800.31
2018-12-04T00:03:12.615Z,800.33
2018-12-04T00:03:16.917Z,800.33
2018-12-04T00:03:21.216Z,800.34
2018-12-04T00:03:25.512Z,800.32
2018-12-04T00:03:29.619Z,800.31
2018-12-04T00:03:33.915Z,800.35
2018-12-04T00:03:38.218Z,800.36
2018-12-04T00:03:42.511Z,800.37
2018-12-04T00:03:46.809Z,800.37
2018-12-04T00:03:51.110Z,800.37
2018-12-04T00:03:55.450Z,800.36
2018-12-04T00:03:59.744Z,800.39
2018-12-04T00:04:04.094Z,800.38
2018-12-04T00:04:08.289Z,800.39
2018-12-04T00:04:12.582Z,800.4
2018-12-04T00:04:16.883Z,800.42
2018-12-04T00:04:21.080Z,800.41
2018-12-04T00:04:25.378Z,800.38
2018-12-04T00:04:29.583Z,800.43
2018-12-04T00:04:33.876Z,800.45
2018-12-04T00:04:38.167Z,800.43
2018-12-04T00:04:42.502Z,800.41
2018-12-04T00:04:46.796Z,800.44
2018-12-04T00:04:51.087Z,800.48
2018-12-04T00:04:55.375Z,800.44
2018-12-04T00:04:59.665Z,800.46
2018-12-04T00:05:03.979Z,800.5
2018-12-04T00:05:08.273Z,800.48
2018-12-04T00:05:12.578Z,800.48
2018-12-04T00:05:16.871Z,800.45
2018-12-04T00:05:21.167Z,800.5
2018-12-04T00:05:25.498Z,800.48
2018-12-04T00:05:29.795Z,800.48
2018-12-04T00:05:34.085Z,800.49
2018-12-04T00:05:38.378Z,800.5
2018-12-04T00:05:42.671Z,800.48
2018-12-04T00:05:46.867Z,800.51
2018-12-04T00:05:51.064Z,800.55
2018-12-04T00:05:55.279Z,800.52
2018-12-04T00:05:59.588Z,800.51
2018-12-04T00:06:03.885Z,800.52
2018-12-04T00:06:08.176Z,800.49
2018-12-04T00:06:12.469Z,800.51
2018-12-04T00:06:16.670Z,800.55
2018-12-04T00:06:20.972Z,800.53
2018-12-04T00:06:25.260Z,800.52
2018-12-04T00:06:29.558Z,800.53
2018-12-04T00:06:33.857Z,800.5
2018-12-04T00:06:38.158Z,800.53
2018-12-04T00:06:42.453Z,800.54
2018-12-04T00:06:46.748Z,800.53
2018-12-04T00:06:51.034Z,800.56
2018-12-04T00:06:55.324Z,800.54
2018-12-04T00:06:59.648Z,800.54
2018-12-04T00:07:04.000Z,800.56
2018-12-04T00:07:08.298Z,800.54
2018-12-04T00:07:12.590Z,800.54
2018-12-04T00:07:16.924Z,800.53
2018-12-04T00:07:21.229Z,800.57
2018-12-04T00:07:25.519Z,800.59
2018-12-04T00:07:29.809Z,800.55
2018-12-04T00:07:34.103Z,800.56
2018-12-04T00:07:38.408Z,800.54
2018-12-04T00:07:42.705Z,800.56
2018-12-04T00:07:46.996Z,800.56
2018-12-04T00:07:51.289Z,800.58
2018-12-04T00:07:55.588Z,800.6
2018-12-04T00:07:59.925Z,800.59
2018-12-04T00:08:04.227Z,800.62
2018-12-04T00:08:08.520Z,800.58
2018-12-04T00:08:12.806Z,800.59
2018-12-04T00:08:17.094Z,800.57
2018-12-04T00:08:21.284Z,800.59
2018-12-04T00:08:25.488Z,800.6
2018-12-04T00:08:29.777Z,800.6
2018-12-04T00:08:34.074Z,800.62
2018-12-04T00:08:38.368Z,800.6
2018-12-04T00:08:42.475Z,800.61
2018-12-04T00:08:46.770Z,800.57
2018-12-04T00:08:51.057Z,800.56
2018-12-04T00:08:55.355Z,800.63
2018-12-04T00:08:59.650Z,800.58
2018-12-04T00:09:03.948Z,800.62
2018-12-04T00:09:08.243Z,800.62
2018-12-04T00:09:12.439Z,800.58
2018-12-04T00:09:16.733Z,800.6
2018-12-04T00:09:21.026Z,800.6
2018-12-04T00:09:25.319Z,800.62
2018-12-04T00:09:29.608Z,800.62
2018-12-04T00:09:33.916Z,800.6
2018-12-04T00:09:38.217Z,800.6
2018-12-04T00:09:42.519Z,800.62
2018-12-04T00:09:46.823Z,800.58
2018-12-04T00:09:51.116Z,800.57
2018-12-04T00:09:55.404Z,800.62
2018-12-04T00:09:59.704Z,800.6
2018-12-04T00:10:04.067Z,800.59
2018-12-04T00:10:08.262Z,800.6
2018-12-04T00:10:12.565Z,800.56
2018-12-04T00:10:16.860Z,800.61
2018-12-04T00:10:21.155Z,800.61
2018-12-04T00:10:25.447Z,800.64
2018-12-04T00:10:29.645Z,800.65
2018-12-04T00:10:33.936Z,800.61
2018-12-04T00:10:38.223Z,800.64
2018-12-04T00:10:42.514Z,800.64
2018-12-04T00:10:46.705Z,800.65
2018-12-04T00:10:50.998Z,800.65
2018-12-04T00:10:55.188Z,800.63
2018-12-04T00:10:59.478Z,800.64
2018-12-04T00:11:03.778Z,800.65
2018-12-04T00:11:08.073Z,800.61
2018-12-04T00:11:12.367Z,800.67
2018-12-04T00:11:16.652Z,800.68
2018-12-04T00:11:20.850Z,800.67
2018-12-04T00:11:25.136Z,800.66
2018-12-04T00:11:29.437Z,800.63
2018-12-04T00:11:33.728Z,800.65
2018-12-04T00:11:38.023Z,800.66
2018-12-04T00:11:42.315Z,800.66
2018-12-04T00:11:46.507Z,800.66
2018-12-04T00:11:50.702Z,800.67
2018-12-04T00:11:54.904Z,800.7
2018-12-04T00:11:59.194Z,800.66
2018-12-04T00:12:03.489Z,800.67
2018-12-04T00:12:07.799Z,800.66
2018-12-04T00:12:12.098Z,800.64
2018-12-04T00:12:16.394Z,800.67
2018-12-04T00:12:20.691Z,800.66
2018-12-04T00:12:24.986Z,800.66
2018-12-04T00:12:29.085Z,800.66
2018-12-04T00:12:33.374Z,800.64
2018-12-04T00:12:37.677Z,800.65
2018-12-04T00:12:41.970Z,800.65
2018-12-04T00:12:46.164Z,800.63
2018-12-04T00:12:50.455Z,800.61
2018-12-04T00:12:54.761Z,800.59
2018-12-04T00:12:59.049Z,800.61
2018-12-04T00:13:03.251Z,800.62
2018-12-04T00:13:07.555Z,800.58
2018-12-04T00:13:11.847Z,800.6
2018-12-04T00:13:16.136Z,800.57
2018-12-04T00:13:20.425Z,800.6
2018-12-04T00:13:24.724Z,800.61
2018-12-04T00:13:29.019Z,800.56
2018-12-04T00:13:33.116Z,800.59
2018-12-04T00:13:37.409Z,800.6
2018-12-04T00:13:41.709Z,800.63
2018-12-04T00:13:45.902Z,800.59
2018-12-04T00:13:50.194Z,800.57
2018-12-04T00:13:54.500Z,800.54
2018-12-04T00:13:58.802Z,800.59
2018-12-04T00:14:03.003Z,800.58
2018-12-04T00:14:07.298Z,800.51
2018-12-04T00:14:11.597Z,800.54
2018-12-04T00:14:15.893Z,800.55
2018-12-04T00:14:20.185Z,800.57
2018-12-04T00:14:24.488Z,800.57
2018-12-04T00:14:28.685Z,800.56
2018-12-04T00:14:32.974Z,800.55
2018-12-04T00:14:37.321Z,800.56
2018-12-04T00:14:41.616Z,800.55
2018-12-04T00:14:45.915Z,800.51
2018-12-04T00:14:50.205Z,800.57
2018-12-04T00:14:54.495Z,800.55
2018-12-04T00:14:58.811Z,800.57
2018-12-04T00:15:03.166Z,800.53
2018-12-04T00:15:07.459Z,800.54
2018-12-04T00:15:11.753Z,800.53
2018-12-04T00:15:16.047Z,800.5
2018-12-04T00:15:20.337Z,800.51
2018-12-04T00:15:24.630Z,800.53
2018-12-04T00:15:28.920Z,800.5
2018-12-04T00:15:33.207Z,800.52
2018-12-04T00:15:37.497Z,800.51
2018-12-04T00:15:41.795Z,800.49
2018-12-04T00:15:45.989Z,800.5
2018-12-04T00:15:50.282Z,800.5
2018-12-04T00:15:54.576Z,800.49
2018-12-04T00:15:58.876Z,800.47
2018-12-04T00:16:03.173Z,800.45
2018-12-04T00:16:07.465Z,800.48
2018-12-04T00:16:11.661Z,800.42
2018-12-04T00:16:15.963Z,800.46
2018-12-04T00:16:20.257Z,800.43
2018-12-04T00:16:24.559Z,800.44
2018-12-04T00:16:28.856Z,800.46
2018-12-04T00:16:34.197Z,800.44
2018-12-04T00:16:38.496Z,800.42
2018-12-04T00:16:42.792Z,800.44
2018-12-04T00:16:46.991Z,800.49
2018-12-04T00:16:51.340Z,800.43
2018-12-04T00:16:55.543Z,800.48
2018-12-04T00:16:59.840Z,800.44
2018-12-04T00:17:04.036Z,800.45
2018-12-04T00:17:08.331Z,800.43
2018-12-04T00:17:12.534Z,800.42
2018-12-04T00:17:16.835Z,800.44
2018-12-04T00:17:21.143Z,800.43
2018-12-04T00:17:25.445Z,800.4
2018-12-04T00:17:29.645Z,800.45
2018-12-04T00:17:33.939Z,800.41
2018-12-04T00:17:38.292Z,800.44
2018-12-04T00:17:42.393Z,800.45
2018-12-04T00:17:46.690Z,800.44
2018-12-04T00:17:50.893Z,800.43
2018-12-04T00:17:55.196Z,800.35
2018-12-04T00:17:59.489Z,800.38
2018-12-04T00:18:03.692Z,800.42
2018-12-04T00:18:07.993Z,800.43
2018-12-04T00:18:12.282Z,800.44
2018-12-04T00:18:16.576Z,800.43
2018-12-04T00:18:20.776Z,800.45
2018-12-04T00:18:25.098Z,800.39
2018-12-04T00:18:29.393Z,800.43
2018-12-04T00:18:33.693Z,800.43
2018-12-04T00:18:37.986Z,800.42
2018-12-04T00:18:42.284Z,800.43
2018-12-04T00:18:46.573Z,800.43
2018-12-04T00:18:50.909Z,800.43
2018-12-04T00:18:55.210Z,800.45
2018-12-04T00:18:59.502Z,800.45
2018-12-04T00:19:03.808Z,800.39
2018-12-04T00:19:08.118Z,800.42
2018-12-04T00:19:12.413Z,800.43
2018-12-04T00:19:16.710Z,800.45
2018-12-04T00:19:21.006Z,800.42
2018-12-04T00:19:25.210Z,800.42
2018-12-04T00:19:29.498Z,800.38
2018-12-04T00:19:33.793Z,800.45
2018-12-04T00:19:38.093Z,800.45
2018-12-04T00:19:42.296Z,800.46
2018-12-04T00:19:46.591Z,800.47
2018-12-04T00:19:50.882Z,800.44
2018-12-04T00:19:55.176Z,800.43
2018-12-04T00:19:59.373Z,800.48
2018-12-04T00:20:03.825Z,800.46
2018-12-04T00:20:08.125Z,800.47
2018-12-04T00:20:12.417Z,800.45
2018-12-04T00:20:16.709Z,800.46
2018-12-04T00:20:21.005Z,800.43
2018-12-04T00:20:25.345Z,800.38
2018-12-04T00:20:29.542Z,800.36
2018-12-04T00:20:33.839Z,800.36
2018-12-04T00:20:38.135Z,800.45
2018-12-04T00:20:42.427Z,800.4
2018-12-04T00:20:46.622Z,800.41
2018-12-04T00:20:50.922Z,800.43
2018-12-04T00:20:55.216Z,800.42
2018-12-04T00:20:59.505Z,800.44
2018-12-04T00:21:03.799Z,800.43
2018-12-04T00:21:08.089Z,800.41
2018-12-04T00:21:12.399Z,800.4
2018-12-04T00:21:16.695Z,800.43
2018-12-04T00:21:20.996Z,800.39
2018-12-04T00:21:25.283Z,800.41
2018-12-04T00:21:29.478Z,800.42
2018-12-04T00:21:33.774Z,800.43
2018-12-04T00:21:38.065Z,800.43
2018-12-04T00:21:42.358Z,800.43
2018-12-04T00:21:46.652Z,800.44
2018-12-04T00:21:50.955Z,800.44
2018-12-04T00:21:55.244Z,800.46
2018-12-04T00:21:59.528Z,800.47
2018-12-04T00:22:03.822Z,800.4
2018-12-04T00:22:08.112Z,800.39
2018-12-04T00:22:12.411Z,800.39
2018-12-04T00:22:16.705Z,800.41
2018-12-04T00:22:21.002Z,800.41
2018-12-04T00:22:25.304Z,800.43
2018-12-04T00:22:29.606Z,800.41
2018-12-04T00:22:33.893Z,800.45
2018-12-04T00:22:38.193Z,800.45
2018-12-04T00:22:42.487Z,800.45
2018-12-04T00:22:46.804Z,800.4
2018-12-04T00:22:50.998Z,800.39
2018-12-04T00:22:55.286Z,800.4
2018-12-04T00:22:59.589Z,800.4
2018-12-04T00:23:03.894Z,800.38
2018-12-04T00:23:08.191Z,800.39
2018-12-04T00:23:12.482Z,800.37
2018-12-04T00:23:16.789Z,800.34
2018-12-04T00:23:21.082Z,800.33
2018-12-04T00:23:25.375Z,800.32
2018-12-04T00:23:29.670Z,800.32
2018-12-04T00:23:33.970Z,800.35
2018-12-04T00:23:38.259Z,800.32
2018-12-04T00:23:42.448Z,800.35
2018-12-04T00:23:46.735Z,800.31
2018-12-04T00:23:51.029Z,800.33
2018-12-04T00:23:55.321Z,800.3
2018-12-04T00:23:59.520Z,800.29
2018-12-04T00:24:03.720Z,800.32
2018-12-04T00:24:08.012Z,800.26
2018-12-04T00:24:12.304Z,800.29
2018-12-04T00:24:16.603Z,800.29
2018-12-04T00:24:20.893Z,800.31
2018-12-04T00:24:25.187Z,800.29
2018-12-04T00:24:29.479Z,800.29
2018-12-04T00:24:33.670Z,800.3
2018-12-04T00:24:37.966Z,800.29
2018-12-04T00:24:42.259Z,800.3
2018-12-04T00:24:46.554Z,800.29
2018-12-04T00:24:50.855Z,800.28
2018-12-04T00:24:55.151Z,800.25
2018-12-04T00:24:59.443Z,800.25
2018-12-04T00:25:03.746Z,800.26
2018-12-04T00:25:08.034Z,800.24
2018-12-04T00:25:12.330Z,800.26
2018-12-04T00:25:16.619Z,800.29
2018-12-04T00:25:20.915Z,800.26
2018-12-04T00:25:25.212Z,800.24
2018-12-04T00:25:29.409Z,800.22
2018-12-04T00:25:33.601Z,800.3
2018-12-04T00:25:37.795Z,800.29
2018-12-04T00:25:42.086Z,800.28
2018-12-04T00:26:18.383Z,800.24
2018-12-04T00:26:22.631Z,800.25
2018-12-04T00:26:26.933Z,800.25
2018-12-04T00:26:31.231Z,800.21
2018-12-04T00:26:35.520Z,800.24
2018-12-04T00:26:39.808Z,800.24
2018-12-04T00:26:44.098Z,800.22
2018-12-04T00:26:48.393Z,800.2
2018-12-04T00:26:52.686Z,800.19
2018-12-04T00:26:56.978Z,800.17
2018-12-04T00:27:01.272Z,800.21
2018-12-04T00:27:05.568Z,800.14
2018-12-04T00:27:09.866Z,800.15
2018-12-04T00:27:14.155Z,800.12
2018-12-04T00:27:18.446Z,800.13
2018-12-04T00:27:22.735Z,800.13
2018-12-04T00:27:26.930Z,800.1
2018-12-04T00:27:31.223Z,800.09
2018-12-04T00:27:35.534Z,800.06
2018-12-04T00:27:39.834Z,800.09
2018-12-04T00:27:44.124Z,800.06
2018-12-04T00:27:48.414Z,800.01
2018-12-04T00:27:52.707Z,799.99
2018-12-04T00:27:56.901Z,800.04
2018-12-04T00:28:01.101Z,799.98
2018-12-04T00:28:05.397Z,800.04
2018-12-04T00:28:09.701Z,800.01
2018-12-04T00:28:13.995Z,800.04
2018-12-04T00:28:18.289Z,800.02
2018-12-04T00:28:22.482Z,800.03
2018-12-04T00:28:26.771Z,800.02
2018-12-04T00:28:30.967Z,800.01
2018-12-04T00:28:35.068Z,800.06
2018-12-04T00:28:39.364Z,800
2018-12-04T00:28:43.667Z,800.03
2018-12-04T00:28:47.867Z,799.96
2018-12-04T00:28:52.158Z,799.93
2018-12-04T00:28:56.447Z,799.91
2018-12-04T00:29:00.649Z,799.97
2018-12-04T00:29:04.956Z,799.93
2018-12-04T00:29:09.253Z,799.93
2018-12-04T00:29:13.462Z,799.88
2018-12-04T00:29:17.662Z,799.87
2018-12-04T00:29:21.947Z,799.86
2018-12-04T00:29:26.141Z,799.86
2018-12-04T00:29:30.440Z,799.85
2018-12-04T00:29:34.645Z,799.87
2018-12-04T00:29:38.988Z,799.87
2018-12-04T00:29:43.177Z,799.86
2018-12-04T00:29:47.471Z,799.85
2018-12-04T00:29:51.763Z,799.83
2018-12-04T00:29:56.060Z,799.84
2018-12-04T00:30:00.355Z,799.81
2018-12-04T00:30:04.547Z,799.84
2018-12-04T00:30:08.837Z,799.84
2018-12-04T00:30:13.125Z,799.82
2018-12-04T00:30:17.463Z,799.85
2018-12-04T00:30:21.654Z,799.87
2018-12-04T00:30:25.946Z,799.86
2018-12-04T00:30:30.243Z,799.86
2018-12-04T00:30:34.534Z,799.89
2018-12-04T00:30:38.755Z,799.84
2018-12-04T00:30:43.098Z,799.81
2018-12-04T00:30:47.389Z,799.82
2018-12-04T00:30:51.692Z,799.81
2018-12-04T00:30:55.893Z,799.85
2018-12-04T00:31:00.086Z,799.84
2018-12-04T00:31:04.389Z,799.82
2018-12-04T00:31:08.679Z,799.8
2018-12-04T00:31:12.975Z,799.84
2018-12-04T00:31:17.171Z,799.81
2018-12-04T00:31:21.465Z,799.82
2018-12-04T00:31:25.753Z,799.82
2018-12-04T00:31:30.050Z,799.81
2018-12-04T00:31:34.349Z,799.82
2018-12-04T00:31:38.639Z,799.82
2018-12-04T00:31:42.931Z,799.81
2018-12-04T00:31:47.134Z,799.81
2018-12-04T00:31:51.423Z,799.81
2018-12-04T00:31:55.718Z,799.77
2018-12-04T00:32:00.007Z,799.75
2018-12-04T00:32:04.356Z,799.8
2018-12-04T00:32:08.645Z,799.82
2018-12-04T00:32:12.943Z,799.79
2018-12-04T00:32:17.242Z,799.8
2018-12-04T00:32:21.544Z,799.81
2018-12-04T00:32:25.838Z,799.78
2018-12-04T00:32:30.127Z,799.75
2018-12-04T00:32:34.422Z,799.72
2018-12-04T00:32:38.709Z,799.71
2018-12-04T00:32:42.998Z,799.72
2018-12-04T00:32:47.294Z,799.74
2018-12-04T00:32:51.488Z,799.76
2018-12-04T00:32:55.678Z,799.74
2018-12-04T00:32:59.876Z,799.76
2018-12-04T00:33:04.163Z,799.76
2018-12-04T00:33:08.368Z,799.71
2018-12-04T00:33:12.561Z,799.77
2018-12-04T00:33:16.856Z,799.75
2018-12-04T00:33:21.174Z,799.76
2018-12-04T00:33:25.468Z,799.75
2018-12-04T00:33:29.767Z,799.76
2018-12-04T00:33:34.055Z,799.79
2018-12-04T00:33:38.353Z,799.77
2018-12-04T00:33:42.645Z,799.76
2018-12-04T00:33:46.954Z,799.79
2018-12-04T00:33:51.252Z,799.77
2018-12-04T00:33:55.445Z,799.72
2018-12-04T00:33:59.740Z,799.74
2018-12-04T00:34:04.145Z,799.75
2018-12-04T00:34:08.436Z,799.72
2018-12-04T00:34:12.679Z,799.75
2018-12-04T00:34:16.981Z,799.76
2018-12-04T00:34:21.268Z,799.76
2018-12-04T00:34:25.557Z,799.75
2018-12-04T00:34:29.845Z,799.76
2018-12-04T00:34:34.039Z,799.78
2018-12-04T00:34:38.282Z,799.73
2018-12-04T00:34:42.482Z,799.73
2018-12-04T00:34:46.677Z,799.72
2018-12-04T00:34:50.969Z,799.74
2018-12-04T00:34:55.262Z,799.74
2018-12-04T00:34:59.553Z,799.68
2018-12-04T00:35:03.848Z,799.73
2018-12-04T00:35:08.135Z,799.74
2018-12-04T00:35:12.430Z,799.72
2018-12-04T00:35:16.721Z,799.75
2018-12-04T00:35:21.014Z,799.76
2018-12-04T00:35:25.210Z,799.75
2018-12-04T00:35:29.403Z,799.73
2018-12-04T00:35:33.589Z,799.72
2018-12-04T00:35:37.882Z,799.69
2018-12-04T00:35:42.177Z,799.71
2018-12-04T00:35:46.369Z,799.7
2018-12-04T00:35:50.657Z,799.73
2018-12-04T00:35:54.948Z,799.68
2018-12-04T00:35:59.235Z,799.68
2018-12-04T00:36:03.623Z,799.68
2018-12-04T00:36:07.827Z,799.72
2018-12-04T00:36:12.126Z,799.7
2018-12-04T00:36:16.417Z,799.71
2018-12-04T00:36:20.714Z,799.65
2018-12-04T00:36:25.019Z,799.68
2018-12-04T00:36:29.209Z,799.63
2018-12-04T00:36:33.508Z,799.68
2018-12-04T00:36:37.797Z,799.64
2018-12-04T00:36:42.097Z,799.65
2018-12-04T00:36:46.199Z,799.61
2018-12-04T00:36:50.490Z,799.66
2018-12-04T00:36:54.789Z,799.62
2018-12-04T00:36:59.077Z,799.65
2018-12-04T00:37:03.275Z,799.61
2018-12-04T00:37:07.577Z,799.6
2018-12-04T00:37:11.874Z,799.66
2018-12-04T00:37:16.172Z,799.67
2018-12-04T00:37:20.474Z,799.65
2018-12-04T00:37:24.765Z,799.65
2018-12-04T00:37:29.059Z,799.66
2018-12-04T00:37:33.348Z,799.65
2018-12-04T00:37:37.465Z,799.65
2018-12-04T00:37:41.757Z,799.64
2018-12-04T00:37:46.045Z,799.64
2018-12-04T00:37:50.335Z,799.66
2018-12-04T00:37:54.623Z,799.67
2018-12-04T00:37:58.919Z,799.67
2018-12-04T00:38:03.212Z,799.66
2018-12-04T00:38:07.500Z,799.67
2018-12-04T00:38:11.787Z,799.64
2018-12-04T00:38:16.076Z,799.65
2018-12-04T00:38:20.371Z,799.67
2018-12-04T00:38:24.662Z,799.69
2018-12-04T00:38:28.955Z,799.69
2018-12-04T00:38:33.250Z,799.71
2018-12-04T00:38:37.548Z,799.74
2018-12-04T00:38:41.839Z,799.71
2018-12-04T00:38:46.129Z,799.72
2018-12-04T00:38:50.420Z,799.72
2018-12-04T00:38:54.722Z,799.72
2018-12-04T00:38:59.019Z,799.72
2018-12-04T00:39:04.743Z,799.66
2018-12-04T00:39:08.943Z,799.74
2018-12-04T00:39:13.239Z,799.74
2018-12-04T00:39:17.550Z,799.68
2018-12-04T00:39:21.837Z,799.67
2018-12-04T00:39:26.133Z,799.65
2018-12-04T00:39:30.432Z,799.71
2018-12-04T00:39:34.728Z,799.69
2018-12-04T00:39:39.021Z,799.7
2018-12-04T00:39:43.315Z,799.72
2018-12-04T00:39:47.613Z,799.7
2018-12-04T00:39:51.913Z,799.71
2018-12-04T00:39:56.215Z,799.69
2018-12-04T00:40:00.525Z,799.68
2018-12-04T00:40:04.832Z,799.65
2018-12-04T00:40:09.130Z,799.68
2018-12-04T00:40:13.423Z,799.67
2018-12-04T00:40:17.714Z,799.67
2018-12-04T00:40:21.811Z,799.68
2018-12-04T00:40:26.112Z,799.67
2018-12-04T00:40:30.411Z,799.67
2018-12-04T00:40:34.703Z,799.73
2018-12-04T00:40:38.995Z,799.72
2018-12-04T00:40:43.290Z,799.74
2018-12-04T00:40:47.582Z,799.77
2018-12-04T00:40:51.778Z,799.74
2018-12-04T00:40:56.071Z,799.75
2018-12-04T00:41:00.363Z,799.78
2018-12-04T00:41:04.660Z,799.78
2018-12-04T00:41:08.950Z,799.78
2018-12-04T00:41:13.241Z,799.79
2018-12-04T00:41:17.534Z,799.76
2018-12-04T00:41:21.823Z,799.7
2018-12-04T00:41:26.125Z,799.77
2018-12-04T00:41:30.422Z,799.76
2018-12-04T00:41:34.722Z,799.77
2018-12-04T00:41:39.025Z,799.73
2018-12-04T00:41:43.318Z,799.71
2018-12-04T00:41:47.508Z,799.75
2018-12-04T00:41:51.828Z,799.71
2018-12-04T00:41:56.129Z,799.73
2018-12-04T00:42:00.423Z,799.72
2018-12-04T00:42:04.862Z,799.73
2018-12-04T00:42:09.152Z,799.76
2018-12-04T00:42:13.445Z,799.74
2018-12-04T00:42:17.740Z,799.73
2018-12-04T00:42:22.035Z,799.75
2018-12-04T00:42:26.245Z,799.76
2018-12-04T00:42:30.537Z,799.78
2018-12-04T00:42:34.833Z,799.78
2018-12-04T00:42:39.036Z,799.71
2018-12-04T00:42:43.328Z,799.77
2018-12-04T00:42:47.686Z,799.78
2018-12-04T00:42:51.883Z,799.81
2018-12-04T00:42:56.111Z,799.83
2018-12-04T00:43:00.412Z,799.82
2018-12-04T00:43:04.759Z,799.82
2018-12-04T00:43:09.061Z,799.82
2018-12-04T00:43:13.405Z,799.84
2018-12-04T00:43:17.710Z,799.84
2018-12-04T00:43:22.000Z,799.83
2018-12-04T00:43:26.294Z,799.85
2018-12-04T00:43:30.595Z,799.84
2018-12-04T00:43:34.836Z,799.84
2018-12-04T00:43:39.123Z,799.84
2018-12-04T00:43:43.414Z,799.84
2018-12-04T00:43:47.702Z,799.81
2018-12-04T00:43:51.895Z,799.84
2018-12-04T00:43:56.188Z,799.85
2018-12-04T00:44:00.484Z,799.82
2018-12-04T00:44:04.926Z,799.84
2018-12-04T00:44:09.223Z,799.88
2018-12-04T00:44:13.517Z,799.83
2018-12-04T00:44:17.813Z,799.87
2018-12-04T00:44:22.101Z,799.85
2018-12-04T00:44:26.403Z,799.85
2018-12-04T00:44:30.703Z,799.88
2018-12-04T00:44:35.000Z,799.84
2018-12-04T00:44:39.291Z,799.86
2018-12-04T00:44:43.396Z,799.91
2018-12-04T00:44:47.590Z,799.9
2018-12-04T00:44:51.881Z,799.84
2018-12-04T00:44:56.175Z,799.83
2018-12-04T00:45:00.470Z,799.79
2018-12-04T00:45:04.778Z,799.89
2018-12-04T00:45:09.074Z,799.85
2018-12-04T00:45:13.374Z,799.88
2018-12-04T00:45:17.664Z,799.85
2018-12-04T00:45:21.953Z,799.86
2018-12-04T00:45:26.252Z,799.9
2018-12-04T00:45:30.443Z,799.88
2018-12-04T00:45:34.741Z,799.9
2018-12-04T00:45:39.040Z,799.88
2018-12-04T00:45:43.331Z,799.89
2018-12-04T00:45:47.626Z,799.9
2018-12-04T00:45:51.926Z,799.9
2018-12-04T00:45:56.215Z,799.91
2018-12-04T00:46:00.436Z,799.89
2018-12-04T00:46:04.731Z,799.93
2018-12-04T00:46:09.019Z,799.96
2018-12-04T00:46:13.308Z,799.91
2018-12-04T00:46:17.595Z,799.94
2018-12-04T00:46:21.892Z,799.96
2018-12-04T00:46:26.182Z,799.94
2018-12-04T00:46:30.280Z,799.91
2018-12-04T00:46:34.572Z,799.95
2018-12-04T00:46:38.866Z,799.96
2018-12-04T00:46:43.062Z,799.98
2018-12-04T00:46:47.360Z,799.98
2018-12-04T00:46:51.461Z,800
2018-12-04T00:46:55.657Z,799.98
2018-12-04T00:46:59.957Z,800
2018-12-04T00:47:04.252Z,799.98
2018-12-04T00:47:08.545Z,799.95
2018-12-04T00:47:12.834Z,799.99
2018-12-04T00:47:17.124Z,799.99
2018-12-04T00:47:21.422Z,800
2018-12-04T00:47:25.720Z,799.97
2018-12-04T00:47:30.014Z,799.97
2018-12-04T00:47:34.167Z,799.98
2018-12-04T00:47:38.456Z,799.99
2018-12-04T00:47:42.647Z,799.93
2018-12-04T00:47:46.946Z,799.98
2018-12-04T00:47:51.233Z,799.94
2018-12-04T00:47:55.429Z,799.95
2018-12-04T00:47:59.719Z,799.92
2018-12-04T00:48:03.919Z,799.9
2018-12-04T00:48:08.110Z,799.94
2018-12-04T00:48:12.307Z,799.88
2018-12-04T00:48:16.596Z,799.87
2018-12-04T00:48:20.882Z,799.85
2018-12-04T00:48:25.181Z,799.89
2018-12-04T00:48:29.488Z,799.83
2018-12-04T00:48:33.794Z,799.86
2018-12-04T00:48:38.097Z,799.85
2018-12-04T00:48:42.193Z,799.88
2018-12-04T00:48:46.487Z,799.87
2018-12-04T00:48:50.776Z,799.91
2018-12-04T00:48:54.970Z,799.9
2018-12-04T00:48:59.272Z,799.91
2018-12-04T00:49:03.374Z,799.89
2018-12-04T00:49:07.666Z,799.92
2018-12-04T00:49:11.959Z,799.95
2018-12-04T00:49:16.256Z,799.92
2018-12-04T00:49:20.463Z,799.92
2018-12-04T00:49:24.752Z,799.9
2018-12-04T00:49:29.042Z,799.92
2018-12-04T00:49:33.345Z,799.89
2018-12-04T00:49:37.638Z,799.89
2018-12-04T00:49:41.935Z,799.91
2018-12-04T00:49:46.222Z,799.91
2018-12-04T00:49:50.520Z,799.9
2018-12-04T00:49:54.811Z,799.89
2018-12-04T00:49:59.055Z,799.89
2018-12-04T00:50:03.451Z,799.94
2018-12-04T00:50:07.542Z,799.92
2018-12-04T00:50:11.842Z,799.94
2018-12-04T00:50:16.132Z,799.92
2018-12-04T00:50:20.374Z,799.93
2018-12-04T00:50:24.664Z,799.9
2018-12-04T00:50:28.963Z,799.87
2018-12-04T00:50:33.158Z,799.93
2018-12-04T00:50:37.455Z,799.91
2018-12-04T00:50:41.651Z,799.92
2018-12-04T00:50:45.947Z,799.96
2018-12-04T00:50:50.235Z,799.93
2018-12-04T00:50:54.525Z,799.93
2018-12-04T00:50:58.823Z,799.9
2018-12-04T00:51:03.120Z,799.93
2018-12-04T00:51:07.311Z,799.94
2018-12-04T00:51:11.604Z,799.91
2018-12-04T00:51:15.892Z,799.92
2018-12-04T00:51:20.087Z,799.95
2018-12-04T00:51:24.389Z,799.94
2018-12-04T00:51:28.678Z,799.91
2018-12-04T00:51:32.974Z,799.97
2018-12-04T00:51:37.266Z,799.92
2018-12-04T00:51:41.464Z,799.94
2018-12-04T00:51:45.762Z,799.88
2018-12-04T00:51:50.056Z,799.91
2018-12-04T00:51:54.346Z,799.88
2018-12-04T00:51:58.637Z,799.93
2018-12-04T00:52:02.987Z,799.88
2018-12-04T00:52:07.271Z,799.97
2018-12-04T00:52:11.564Z,799.94
2018-12-04T00:52:15.860Z,799.94
2018-12-04T00:52:20.156Z,799.94
2018-12-04T00:52:24.357Z,799.95
2018-12-04T00:52:28.666Z,799.96
2018-12-04T00:52:32.954Z,799.95
2018-12-04T00:52:37.300Z,799.98
2018-12-04T00:52:41.588Z,800
2018-12-04T00:52:45.911Z,799.96
2018-12-04T00:52:50.205Z,799.96
2018-12-04T00:52:54.497Z,799.93
2018-12-04T00:52:58.802Z,799.97
2018-12-04T00:53:03.003Z,799.96
2018-12-04T00:53:07.295Z,799.97
2018-12-04T00:53:11.589Z,799.99
2018-12-04T00:53:15.876Z,799.95
2018-12-04T00:53:20.171Z,799.96
2018-12-04T00:53:24.460Z,799.97
2018-12-04T00:53:28.745Z,799.99
2018-12-04T00:53:33.038Z,800.01
2018-12-04T00:53:37.377Z,799.98
2018-12-04T00:53:41.672Z,799.97
2018-12-04T00:53:46.916Z,800.03
2018-12-04T00:53:51.120Z,799.99
2018-12-04T00:53:55.415Z,799.99
2018-12-04T00:53:59.709Z,800.07
2018-12-04T00:54:04.206Z,800.03
2018-12-04T00:54:08.507Z,800.01
2018-12-04T00:54:12.704Z,800.04
2018-12-04T00:54:16.995Z,800.08
2018-12-04T00:54:21.295Z,800.06
2018-12-04T00:54:25.403Z,800.11
2018-12-04T00:54:29.700Z,800.08
2018-12-04T00:54:33.995Z,800.04
2018-12-04T00:54:38.296Z,800.11